sensor_id;sensor_type;location;lat;lon;timestamp;temperature;humidity
57566;DHT22;63999;43.882;-0.310;2023-05-15T00:00:50;15.80;78.60
57566;DHT22;63999;43.882;-0.310;2023-05-15T00:03:16;15.70;78.30
57566;DHT22;63999;43.882;-0.310;2023-05-15T00:05:42;15.80;79.00
57566;DHT22;63999;43.882;-0.310;2023-05-15T00:08:08;15.80;78.90
57566;DHT22;63999;43.882;-0.310;2023-05-15T00:10:35;15.80;78.60
57566;DHT22;63999;43.882;-0.310;2023-05-15T00:13:00;15.80;79.00
57566;DHT22;63999;43.882;-0.310;2023-05-15T00:15:26;15.80;78.50
57566;DHT22;63999;43.882;-0.310;2023-05-15T00:17:52;15.70;78.80
57566;DHT22;63999;43.882;-0.310;2023-05-15T00:20:18;15.70;78.70
57566;DHT22;63999;43.882;-0.310;2023-05-15T00:22:44;15.70;78.60
57566;DHT22;63999;43.882;-0.310;2023-05-15T00:25:10;15.70;78.90
57566;DHT22;63999;43.882;-0.310;2023-05-15T00:27:36;15.70;79.40
57566;DHT22;63999;43.882;-0.310;2023-05-15T00:30:02;15.70;79.10
57566;DHT22;63999;43.882;-0.310;2023-05-15T00:32:28;15.80;79.00
57566;DHT22;63999;43.882;-0.310;2023-05-15T00:34:54;15.70;78.90
57566;DHT22;63999;43.882;-0.310;2023-05-15T00:37:19;15.70;79.20
57566;DHT22;63999;43.882;-0.310;2023-05-15T00:39:45;15.70;79.40
57566;DHT22;63999;43.882;-0.310;2023-05-15T00:42:11;15.60;79.10
57566;DHT22;63999;43.882;-0.310;2023-05-15T00:44:39;15.60;79.60
57566;DHT22;63999;43.882;-0.310;2023-05-15T00:47:06;15.60;79.50
57566;DHT22;63999;43.882;-0.310;2023-05-15T00:49:33;15.60;79.50
57566;DHT22;63999;43.882;-0.310;2023-05-15T00:52:00;15.60;79.50
57566;DHT22;63999;43.882;-0.310;2023-05-15T00:54:28;15.70;80.20
57566;DHT22;63999;43.882;-0.310;2023-05-15T00:56:58;15.70;79.70
57566;DHT22;63999;43.882;-0.310;2023-05-15T00:59:29;15.70;79.50
57566;DHT22;63999;43.882;-0.310;2023-05-15T01:01:56;15.60;79.60
57566;DHT22;63999;43.882;-0.310;2023-05-15T01:04:22;15.60;79.70
57566;DHT22;63999;43.882;-0.310;2023-05-15T01:06:48;15.70;79.60
57566;DHT22;63999;43.882;-0.310;2023-05-15T01:09:15;15.70;79.40
57566;DHT22;63999;43.882;-0.310;2023-05-15T01:11:44;15.60;79.90
57566;DHT22;63999;43.882;-0.310;2023-05-15T01:14:11;15.70;80.10
57566;DHT22;63999;43.882;-0.310;2023-05-15T01:16:38;15.70;79.70
57566;DHT22;63999;43.882;-0.310;2023-05-15T01:19:07;15.70;80.10
57566;DHT22;63999;43.882;-0.310;2023-05-15T01:32:05;15.60;79.90
57566;DHT22;63999;43.882;-0.310;2023-05-15T01:34:43;15.50;80.20
57566;DHT22;63999;43.882;-0.310;2023-05-15T01:37:18;15.50;80.10
57566;DHT22;63999;43.882;-0.310;2023-05-15T01:39:48;15.50;80.30
57566;DHT22;63999;43.882;-0.310;2023-05-15T01:42:18;15.50;80.60
57566;DHT22;63999;43.882;-0.310;2023-05-15T01:44:54;15.50;79.90
57566;DHT22;63999;43.882;-0.310;2023-05-15T01:47:45;15.50;80.40
57566;DHT22;63999;43.882;-0.310;2023-05-15T01:50:14;15.50;80.30
57566;DHT22;63999;43.882;-0.310;2023-05-15T01:52:47;15.60;79.80
57566;DHT22;63999;43.882;-0.310;2023-05-15T01:55:14;15.50;79.80
57566;DHT22;63999;43.882;-0.310;2023-05-15T01:57:41;15.50;80.00
57566;DHT22;63999;43.882;-0.310;2023-05-15T02:00:09;15.40;80.10
57566;DHT22;63999;43.882;-0.310;2023-05-15T02:02:36;15.40;80.00
57566;DHT22;63999;43.882;-0.310;2023-05-15T02:05:03;15.40;80.60
57566;DHT22;63999;43.882;-0.310;2023-05-15T02:07:30;15.40;80.40
57566;DHT22;63999;43.882;-0.310;2023-05-15T02:09:58;15.30;80.30
57566;DHT22;63999;43.882;-0.310;2023-05-15T02:12:25;15.20;80.70
57566;DHT22;63999;43.882;-0.310;2023-05-15T02:14:52;15.20;80.50
57566;DHT22;63999;43.882;-0.310;2023-05-15T02:17:19;15.20;80.90
57566;DHT22;63999;43.882;-0.310;2023-05-15T02:19:45;15.30;80.50
57566;DHT22;63999;43.882;-0.310;2023-05-15T02:22:11;15.20;81.10
57566;DHT22;63999;43.882;-0.310;2023-05-15T02:24:37;15.20;80.50
57566;DHT22;63999;43.882;-0.310;2023-05-15T02:27:55;15.20;80.40
57566;DHT22;63999;43.882;-0.310;2023-05-15T02:30:37;15.20;80.40
57566;DHT22;63999;43.882;-0.310;2023-05-15T02:35:58;15.20;80.50
57566;DHT22;63999;43.882;-0.310;2023-05-15T02:38:30;15.20;80.40
57566;DHT22;63999;43.882;-0.310;2023-05-15T02:45:29;15.30;80.40
57566;DHT22;63999;43.882;-0.310;2023-05-15T02:47:57;15.20;80.40
57566;DHT22;63999;43.882;-0.310;2023-05-15T02:50:24;15.20;80.70
57566;DHT22;63999;43.882;-0.310;2023-05-15T02:52:50;15.30;80.80
57566;DHT22;63999;43.882;-0.310;2023-05-15T02:55:16;15.40;80.70
57566;DHT22;63999;43.882;-0.310;2023-05-15T02:57:41;15.40;80.50
57566;DHT22;63999;43.882;-0.310;2023-05-15T03:00:08;15.40;80.50
57566;DHT22;63999;43.882;-0.310;2023-05-15T03:02:45;15.50;80.30
57566;DHT22;63999;43.882;-0.310;2023-05-15T03:05:11;15.40;80.40
57566;DHT22;63999;43.882;-0.310;2023-05-15T03:08:22;15.40;80.20
57566;DHT22;63999;43.882;-0.310;2023-05-15T03:10:33;15.40;80.20
57566;DHT22;63999;43.882;-0.310;2023-05-15T03:12:59;15.50;79.80
57566;DHT22;63999;43.882;-0.310;2023-05-15T03:15:25;15.40;79.60
57566;DHT22;63999;43.882;-0.310;2023-05-15T03:17:50;15.30;79.80
57566;DHT22;63999;43.882;-0.310;2023-05-15T03:20:20;15.20;80.00
57566;DHT22;63999;43.882;-0.310;2023-05-15T03:25:57;15.20;80.00
57566;DHT22;63999;43.882;-0.310;2023-05-15T03:28:33;15.10;80.20
57566;DHT22;63999;43.882;-0.310;2023-05-15T03:30:59;15.20;80.20
57566;DHT22;63999;43.882;-0.310;2023-05-15T03:33:25;15.00;80.30
57566;DHT22;63999;43.882;-0.310;2023-05-15T03:35:51;15.00;80.60
57566;DHT22;63999;43.882;-0.310;2023-05-15T03:38:19;15.00;80.70
57566;DHT22;63999;43.882;-0.310;2023-05-15T03:40:44;15.00;80.80
57566;DHT22;63999;43.882;-0.310;2023-05-15T03:43:10;15.00;80.70
57566;DHT22;63999;43.882;-0.310;2023-05-15T03:45:38;15.00;80.70
57566;DHT22;63999;43.882;-0.310;2023-05-15T03:48:04;15.00;80.70
57566;DHT22;63999;43.882;-0.310;2023-05-15T03:50:30;15.00;80.70
57566;DHT22;63999;43.882;-0.310;2023-05-15T03:53:00;15.00;80.60
57566;DHT22;63999;43.882;-0.310;2023-05-15T03:55:30;15.00;80.90
57566;DHT22;63999;43.882;-0.310;2023-05-15T03:57:57;15.00;80.70
57566;DHT22;63999;43.882;-0.310;2023-05-15T04:00:23;15.10;81.00
57566;DHT22;63999;43.882;-0.310;2023-05-15T04:02:49;15.10;80.30
57566;DHT22;63999;43.882;-0.310;2023-05-15T04:05:16;15.00;80.40
57566;DHT22;63999;43.882;-0.310;2023-05-15T04:07:44;15.00;80.80
57566;DHT22;63999;43.882;-0.310;2023-05-15T04:10:11;15.00;80.50
57566;DHT22;63999;43.882;-0.310;2023-05-15T04:12:37;15.00;81.20
57566;DHT22;63999;43.882;-0.310;2023-05-15T04:15:33;14.90;81.20
57566;DHT22;63999;43.882;-0.310;2023-05-15T04:18:01;14.90;81.00
57566;DHT22;63999;43.882;-0.310;2023-05-15T04:20:27;14.90;80.80
57566;DHT22;63999;43.882;-0.310;2023-05-15T04:22:53;14.90;80.80
57566;DHT22;63999;43.882;-0.310;2023-05-15T04:25:19;14.90;81.00
57566;DHT22;63999;43.882;-0.310;2023-05-15T04:27:46;14.90;80.60
57566;DHT22;63999;43.882;-0.310;2023-05-15T04:30:12;14.90;80.80
57566;DHT22;63999;43.882;-0.310;2023-05-15T04:32:39;15.00;80.70
57566;DHT22;63999;43.882;-0.310;2023-05-15T04:35:09;14.90;81.20
57566;DHT22;63999;43.882;-0.310;2023-05-15T04:37:57;15.00;80.70
57566;DHT22;63999;43.882;-0.310;2023-05-15T04:40:24;15.00;80.90
57566;DHT22;63999;43.882;-0.310;2023-05-15T04:42:50;15.00;80.80
57566;DHT22;63999;43.882;-0.310;2023-05-15T04:45:19;15.00;81.30
57566;DHT22;63999;43.882;-0.310;2023-05-15T04:47:50;15.00;81.10
57566;DHT22;63999;43.882;-0.310;2023-05-15T04:50:23;15.10;81.10
57566;DHT22;63999;43.882;-0.310;2023-05-15T04:52:59;15.00;80.50
57566;DHT22;63999;43.882;-0.310;2023-05-15T04:55:52;15.00;80.50
57566;DHT22;63999;43.882;-0.310;2023-05-15T04:58:28;15.00;81.30
57566;DHT22;63999;43.882;-0.310;2023-05-15T05:01:11;15.10;80.80
57566;DHT22;63999;43.882;-0.310;2023-05-15T05:03:50;15.00;80.20
57566;DHT22;63999;43.882;-0.310;2023-05-15T05:06:44;15.00;80.40
57566;DHT22;63999;43.882;-0.310;2023-05-15T05:09:20;15.00;80.90
57566;DHT22;63999;43.882;-0.310;2023-05-15T05:11:51;15.00;80.90
57566;DHT22;63999;43.882;-0.310;2023-05-15T05:14:22;15.00;80.50
57566;DHT22;63999;43.882;-0.310;2023-05-15T05:17:04;14.90;80.60
57566;DHT22;63999;43.882;-0.310;2023-05-15T05:19:48;15.00;80.80
57566;DHT22;63999;43.882;-0.310;2023-05-15T05:22:16;15.00;80.40
57566;DHT22;63999;43.882;-0.310;2023-05-15T05:24:53;14.90;80.40
57566;DHT22;63999;43.882;-0.310;2023-05-15T05:27:32;14.90;81.20
57566;DHT22;63999;43.882;-0.310;2023-05-15T05:32:43;15.00;80.50
57566;DHT22;63999;43.882;-0.310;2023-05-15T05:35:11;14.90;80.40
57566;DHT22;63999;43.882;-0.310;2023-05-15T05:37:50;14.90;80.50
57566;DHT22;63999;43.882;-0.310;2023-05-15T05:40:17;14.90;80.90
57566;DHT22;63999;43.882;-0.310;2023-05-15T05:42:44;14.90;80.60
57566;DHT22;63999;43.882;-0.310;2023-05-15T05:45:24;14.90;80.50
57566;DHT22;63999;43.882;-0.310;2023-05-15T05:48:07;14.90;80.60
57566;DHT22;63999;43.882;-0.310;2023-05-15T05:50:34;14.90;80.30
57566;DHT22;63999;43.882;-0.310;2023-05-15T05:53:04;14.80;80.50
57566;DHT22;63999;43.882;-0.310;2023-05-15T05:55:32;14.90;80.50
57566;DHT22;63999;43.882;-0.310;2023-05-15T05:58:02;14.80;80.70
57566;DHT22;63999;43.882;-0.310;2023-05-15T06:00:28;14.90;80.70
57566;DHT22;63999;43.882;-0.310;2023-05-15T06:02:57;14.80;80.70
57566;DHT22;63999;43.882;-0.310;2023-05-15T06:05:24;14.80;80.70
57566;DHT22;63999;43.882;-0.310;2023-05-15T06:07:51;14.80;80.60
57566;DHT22;63999;43.882;-0.310;2023-05-15T06:10:18;14.80;80.60
57566;DHT22;63999;43.882;-0.310;2023-05-15T06:12:45;14.80;80.70
57566;DHT22;63999;43.882;-0.310;2023-05-15T06:15:11;14.90;81.00
57566;DHT22;63999;43.882;-0.310;2023-05-15T06:17:38;15.00;80.50
57566;DHT22;63999;43.882;-0.310;2023-05-15T06:20:18;14.90;80.70
57566;DHT22;63999;43.882;-0.310;2023-05-15T06:22:55;14.90;80.90
57566;DHT22;63999;43.882;-0.310;2023-05-15T06:25:25;14.90;80.80
57566;DHT22;63999;43.882;-0.310;2023-05-15T06:27:59;14.90;80.90
57566;DHT22;63999;43.882;-0.310;2023-05-15T06:30:27;14.90;81.00
57566;DHT22;63999;43.882;-0.310;2023-05-15T06:32:56;15.00;80.80
57566;DHT22;63999;43.882;-0.310;2023-05-15T06:35:22;15.00;80.60
57566;DHT22;63999;43.882;-0.310;2023-05-15T06:37:51;15.00;80.50
57566;DHT22;63999;43.882;-0.310;2023-05-15T06:40:18;15.00;80.90
57566;DHT22;63999;43.882;-0.310;2023-05-15T06:43:15;15.00;80.50
57566;DHT22;63999;43.882;-0.310;2023-05-15T06:45:49;15.00;80.70
57566;DHT22;63999;43.882;-0.310;2023-05-15T06:48:18;15.00;80.80
57566;DHT22;63999;43.882;-0.310;2023-05-15T06:50:46;15.00;80.80
57566;DHT22;63999;43.882;-0.310;2023-05-15T06:53:15;15.00;80.70
57566;DHT22;63999;43.882;-0.310;2023-05-15T06:55:46;15.00;80.50
57566;DHT22;63999;43.882;-0.310;2023-05-15T06:58:14;15.00;80.60
57566;DHT22;63999;43.882;-0.310;2023-05-15T07:00:52;15.00;80.50
57566;DHT22;63999;43.882;-0.310;2023-05-15T07:03:22;15.00;80.40
57566;DHT22;63999;43.882;-0.310;2023-05-15T07:06:00;15.00;80.60
57566;DHT22;63999;43.882;-0.310;2023-05-15T07:08:54;15.00;80.70
57566;DHT22;63999;43.882;-0.310;2023-05-15T07:11:40;15.00;80.60
57566;DHT22;63999;43.882;-0.310;2023-05-15T07:14:12;15.00;80.50
57566;DHT22;63999;43.882;-0.310;2023-05-15T07:16:42;15.00;80.50
57566;DHT22;63999;43.882;-0.310;2023-05-15T07:19:11;15.00;80.70
57566;DHT22;63999;43.882;-0.310;2023-05-15T07:21:52;15.00;80.80
57566;DHT22;63999;43.882;-0.310;2023-05-15T07:24:44;15.00;80.70
57566;DHT22;63999;43.882;-0.310;2023-05-15T07:27:47;15.00;80.90
57566;DHT22;63999;43.882;-0.310;2023-05-15T07:30:22;15.00;80.80
57566;DHT22;63999;43.882;-0.310;2023-05-15T07:32:49;15.00;80.70
57566;DHT22;63999;43.882;-0.310;2023-05-15T07:35:24;15.00;80.70
57566;DHT22;63999;43.882;-0.310;2023-05-15T07:37:54;15.00;80.50
57566;DHT22;63999;43.882;-0.310;2023-05-15T07:43:39;15.00;80.70
57566;DHT22;63999;43.882;-0.310;2023-05-15T07:46:05;15.00;80.60
57566;DHT22;63999;43.882;-0.310;2023-05-15T07:48:53;15.10;80.80
57566;DHT22;63999;43.882;-0.310;2023-05-15T07:51:35;15.20;80.90
57566;DHT22;63999;43.882;-0.310;2023-05-15T07:54:10;15.20;80.70
57566;DHT22;63999;43.882;-0.310;2023-05-15T07:56:38;15.20;80.40
57566;DHT22;63999;43.882;-0.310;2023-05-15T08:02:18;15.20;80.50
57566;DHT22;63999;43.882;-0.310;2023-05-15T08:04:39;15.20;80.50
57566;DHT22;63999;43.882;-0.310;2023-05-15T08:07:21;15.20;80.70
57566;DHT22;63999;43.882;-0.310;2023-05-15T08:10:17;15.30;80.70
57566;DHT22;63999;43.882;-0.310;2023-05-15T08:12:46;15.40;80.50
57566;DHT22;63999;43.882;-0.310;2023-05-15T08:15:22;15.40;80.50
57566;DHT22;63999;43.882;-0.310;2023-05-15T08:17:49;15.40;80.70
57566;DHT22;63999;43.882;-0.310;2023-05-15T08:20:34;15.40;80.90
57566;DHT22;63999;43.882;-0.310;2023-05-15T08:23:01;15.40;80.50
57566;DHT22;63999;43.882;-0.310;2023-05-15T08:25:40;15.40;80.40
57566;DHT22;63999;43.882;-0.310;2023-05-15T08:28:10;15.40;80.30
57566;DHT22;63999;43.882;-0.310;2023-05-15T08:30:37;15.40;80.50
57566;DHT22;63999;43.882;-0.310;2023-05-15T08:33:18;15.40;80.70
57566;DHT22;63999;43.882;-0.310;2023-05-15T08:35:47;15.40;80.70
57566;DHT22;63999;43.882;-0.310;2023-05-15T08:38:24;15.40;80.70
57566;DHT22;63999;43.882;-0.310;2023-05-15T08:40:52;15.50;81.10
57566;DHT22;63999;43.882;-0.310;2023-05-15T08:46:28;15.50;81.70
57566;DHT22;63999;43.882;-0.310;2023-05-15T08:48:56;15.50;80.50
57566;DHT22;63999;43.882;-0.310;2023-05-15T08:51:23;15.50;80.50
57566;DHT22;63999;43.882;-0.310;2023-05-15T08:53:50;15.50;80.50
57566;DHT22;63999;43.882;-0.310;2023-05-15T08:56:16;15.50;80.40
57566;DHT22;63999;43.882;-0.310;2023-05-15T08:58:43;15.50;80.50
57566;DHT22;63999;43.882;-0.310;2023-05-15T09:01:11;15.50;80.40
57566;DHT22;63999;43.882;-0.310;2023-05-15T09:03:37;15.50;80.50
57566;DHT22;63999;43.882;-0.310;2023-05-15T09:06:07;15.50;80.20
57566;DHT22;63999;43.882;-0.310;2023-05-15T09:08:38;15.60;80.20
57566;DHT22;63999;43.882;-0.310;2023-05-15T09:11:11;15.50;80.90
57566;DHT22;63999;43.882;-0.310;2023-05-15T09:16:20;15.50;80.20
57566;DHT22;63999;43.882;-0.310;2023-05-15T09:18:47;15.60;80.30
57566;DHT22;63999;43.882;-0.310;2023-05-15T09:21:50;15.60;80.00
57566;DHT22;63999;43.882;-0.310;2023-05-15T09:29:57;15.70;79.80
57566;DHT22;63999;43.882;-0.310;2023-05-15T09:32:39;15.60;80.00
57566;DHT22;63999;43.882;-0.310;2023-05-15T09:35:30;15.60;80.50
57566;DHT22;63999;43.882;-0.310;2023-05-15T09:38:16;15.60;80.30
57566;DHT22;63999;43.882;-0.310;2023-05-15T09:41:12;15.60;79.80
57566;DHT22;63999;43.882;-0.310;2023-05-15T09:44:03;15.60;80.20
57566;DHT22;63999;43.882;-0.310;2023-05-15T09:46:33;15.60;79.80
57566;DHT22;63999;43.882;-0.310;2023-05-15T09:49:08;15.60;79.80
57566;DHT22;63999;43.882;-0.310;2023-05-15T09:51:36;15.60;79.90
57566;DHT22;63999;43.882;-0.310;2023-05-15T09:54:01;15.60;79.70
57566;DHT22;63999;43.882;-0.310;2023-05-15T09:56:28;15.60;80.10
57566;DHT22;63999;43.882;-0.310;2023-05-15T09:59:08;15.60;79.90
57566;DHT22;63999;43.882;-0.310;2023-05-15T10:01:42;15.60;79.70
57566;DHT22;63999;43.882;-0.310;2023-05-15T10:04:16;15.60;80.00
57566;DHT22;63999;43.882;-0.310;2023-05-15T10:06:47;15.60;79.70
57566;DHT22;63999;43.882;-0.310;2023-05-15T10:09:14;15.60;79.70
57566;DHT22;63999;43.882;-0.310;2023-05-15T10:11:43;15.60;79.60
57566;DHT22;63999;43.882;-0.310;2023-05-15T10:14:12;15.60;79.90
57566;DHT22;63999;43.882;-0.310;2023-05-15T10:16:55;15.60;79.70
57566;DHT22;63999;43.882;-0.310;2023-05-15T10:19:30;15.60;79.70
57566;DHT22;63999;43.882;-0.310;2023-05-15T10:22:02;15.60;80.00
57566;DHT22;63999;43.882;-0.310;2023-05-15T10:24:38;15.60;80.00
57566;DHT22;63999;43.882;-0.310;2023-05-15T10:27:30;15.60;79.70
57566;DHT22;63999;43.882;-0.310;2023-05-15T10:30:12;15.60;79.70
57566;DHT22;63999;43.882;-0.310;2023-05-15T10:32:51;15.60;80.20
57566;DHT22;63999;43.882;-0.310;2023-05-15T10:35:18;15.70;80.70
57566;DHT22;63999;43.882;-0.310;2023-05-15T10:37:55;15.70;79.30
57566;DHT22;63999;43.882;-0.310;2023-05-15T10:40:35;15.80;79.80
57566;DHT22;63999;43.882;-0.310;2023-05-15T10:43:23;15.80;79.50
57566;DHT22;63999;43.882;-0.310;2023-05-15T10:45:51;15.80;80.10
57566;DHT22;63999;43.882;-0.310;2023-05-15T10:48:19;15.80;79.10
57566;DHT22;63999;43.882;-0.310;2023-05-15T10:50:51;15.80;79.50
57566;DHT22;63999;43.882;-0.310;2023-05-15T10:53:32;15.80;81.60
57566;DHT22;63999;43.882;-0.310;2023-05-15T10:56:13;16.00;79.70
57566;DHT22;63999;43.882;-0.310;2023-05-15T10:58:50;15.90;79.20
57566;DHT22;63999;43.882;-0.310;2023-05-15T11:01:30;15.80;79.10
57566;DHT22;63999;43.882;-0.310;2023-05-15T11:07:14;15.80;79.60
57566;DHT22;63999;43.882;-0.310;2023-05-15T11:09:44;15.80;79.40
57566;DHT22;63999;43.882;-0.310;2023-05-15T11:13:00;15.80;79.20
57566;DHT22;63999;43.882;-0.310;2023-05-15T11:15:50;16.00;79.50
57566;DHT22;63999;43.882;-0.310;2023-05-15T11:18:19;15.90;80.40
57566;DHT22;63999;43.882;-0.310;2023-05-15T11:23:22;15.90;79.10
57566;DHT22;63999;43.882;-0.310;2023-05-15T11:26:08;15.80;79.50
57566;DHT22;63999;43.882;-0.310;2023-05-15T11:28:44;15.80;79.50
57566;DHT22;63999;43.882;-0.310;2023-05-15T11:31:13;16.00;80.00
57566;DHT22;63999;43.882;-0.310;2023-05-15T11:33:40;15.80;79.30
57566;DHT22;63999;43.882;-0.310;2023-05-15T11:36:07;15.80;79.70
57566;DHT22;63999;43.882;-0.310;2023-05-15T11:38:55;16.00;79.50
57566;DHT22;63999;43.882;-0.310;2023-05-15T11:41:31;16.00;79.70
57566;DHT22;63999;43.882;-0.310;2023-05-15T11:44:05;16.00;79.40
57566;DHT22;63999;43.882;-0.310;2023-05-15T11:46:32;16.00;79.20
57566;DHT22;63999;43.882;-0.310;2023-05-15T11:51:58;16.00;79.50
57566;DHT22;63999;43.882;-0.310;2023-05-15T11:54:26;16.00;79.40
57566;DHT22;63999;43.882;-0.310;2023-05-15T12:00:14;16.00;79.20
57566;DHT22;63999;43.882;-0.310;2023-05-15T12:02:41;16.00;79.90
57566;DHT22;63999;43.882;-0.310;2023-05-15T12:05:09;16.10;79.90
57566;DHT22;63999;43.882;-0.310;2023-05-15T12:07:56;16.00;79.20
57566;DHT22;63999;43.882;-0.310;2023-05-15T12:10:22;16.10;79.50
57566;DHT22;63999;43.882;-0.310;2023-05-15T12:12:52;16.00;79.20
57566;DHT22;63999;43.882;-0.310;2023-05-15T12:15:18;16.00;79.40
57566;DHT22;63999;43.882;-0.310;2023-05-15T12:17:46;16.00;79.40
57566;DHT22;63999;43.882;-0.310;2023-05-15T12:20:18;16.00;79.40
57566;DHT22;63999;43.882;-0.310;2023-05-15T12:22:47;16.00;79.70
57566;DHT22;63999;43.882;-0.310;2023-05-15T12:25:14;16.10;79.20
57566;DHT22;63999;43.882;-0.310;2023-05-15T12:27:40;16.10;79.40
57566;DHT22;63999;43.882;-0.310;2023-05-15T12:30:12;16.10;79.50
57566;DHT22;63999;43.882;-0.310;2023-05-15T12:33:05;16.10;79.80
57566;DHT22;63999;43.882;-0.310;2023-05-15T12:35:59;16.40;79.20
57566;DHT22;63999;43.882;-0.310;2023-05-15T12:38:26;16.40;80.10
57566;DHT22;63999;43.882;-0.310;2023-05-15T12:41:29;16.50;80.20
57566;DHT22;63999;43.882;-0.310;2023-05-15T12:43:55;16.60;79.00
57566;DHT22;63999;43.882;-0.310;2023-05-15T12:46:30;16.60;80.70
57566;DHT22;63999;43.882;-0.310;2023-05-15T12:49:24;16.60;78.20
57566;DHT22;63999;43.882;-0.310;2023-05-15T12:52:17;16.40;79.40
57566;DHT22;63999;43.882;-0.310;2023-05-15T12:55:01;16.40;81.10
57566;DHT22;63999;43.882;-0.310;2023-05-15T12:57:33;16.50;81.10
57566;DHT22;63999;43.882;-0.310;2023-05-15T13:00:21;16.60;79.10
57566;DHT22;63999;43.882;-0.310;2023-05-15T13:02:52;16.60;78.80
57566;DHT22;63999;43.882;-0.310;2023-05-15T13:05:18;16.60;79.90
57566;DHT22;63999;43.882;-0.310;2023-05-15T13:07:45;16.50;80.40
57566;DHT22;63999;43.882;-0.310;2023-05-15T13:10:12;16.50;80.00
57566;DHT22;63999;43.882;-0.310;2023-05-15T13:12:43;16.50;80.00
57566;DHT22;63999;43.882;-0.310;2023-05-15T13:15:41;16.50;81.20
57566;DHT22;63999;43.882;-0.310;2023-05-15T13:18:12;16.60;80.90
57566;DHT22;63999;43.882;-0.310;2023-05-15T13:20:49;16.60;80.80
57566;DHT22;63999;43.882;-0.310;2023-05-15T13:23:21;16.80;79.40
57566;DHT22;63999;43.882;-0.310;2023-05-15T13:25:49;16.70;80.50
57566;DHT22;63999;43.882;-0.310;2023-05-15T13:28:15;16.60;80.40
57566;DHT22;63999;43.882;-0.310;2023-05-15T13:30:41;16.60;80.10
57566;DHT22;63999;43.882;-0.310;2023-05-15T13:33:09;16.60;80.70
57566;DHT22;63999;43.882;-0.310;2023-05-15T13:35:37;16.70;80.10
57566;DHT22;63999;43.882;-0.310;2023-05-15T13:38:03;16.70;80.60
57566;DHT22;63999;43.882;-0.310;2023-05-15T13:40:31;16.70;80.20
57566;DHT22;63999;43.882;-0.310;2023-05-15T13:43:02;16.60;79.20
57566;DHT22;63999;43.882;-0.310;2023-05-15T13:45:28;16.60;79.60
57566;DHT22;63999;43.882;-0.310;2023-05-15T13:47:54;16.50;80.80
57566;DHT22;63999;43.882;-0.310;2023-05-15T13:50:20;16.50;79.70
57566;DHT22;63999;43.882;-0.310;2023-05-15T13:52:46;16.50;79.50
57566;DHT22;63999;43.882;-0.310;2023-05-15T13:55:13;16.50;79.70
57566;DHT22;63999;43.882;-0.310;2023-05-15T13:57:40;16.40;79.60
57566;DHT22;63999;43.882;-0.310;2023-05-15T14:00:07;16.40;79.70
57566;DHT22;63999;43.882;-0.310;2023-05-15T14:02:43;16.40;80.10
57566;DHT22;63999;43.882;-0.310;2023-05-15T14:05:13;16.50;79.80
57566;DHT22;63999;43.882;-0.310;2023-05-15T14:07:40;16.60;80.00
57566;DHT22;63999;43.882;-0.310;2023-05-15T14:10:06;16.50;79.50
57566;DHT22;63999;43.882;-0.310;2023-05-15T14:12:33;16.50;79.70
57566;DHT22;63999;43.882;-0.310;2023-05-15T14:14:59;16.50;79.60
57566;DHT22;63999;43.882;-0.310;2023-05-15T14:17:25;16.50;79.60
57566;DHT22;63999;43.882;-0.310;2023-05-15T14:19:52;16.50;79.60
57566;DHT22;63999;43.882;-0.310;2023-05-15T14:22:18;16.50;79.70
57566;DHT22;63999;43.882;-0.310;2023-05-15T14:24:44;16.50;79.80
57566;DHT22;63999;43.882;-0.310;2023-05-15T14:27:10;16.50;79.90
57566;DHT22;63999;43.882;-0.310;2023-05-15T14:29:37;16.50;80.00
57566;DHT22;63999;43.882;-0.310;2023-05-15T14:32:04;16.50;80.10
57566;DHT22;63999;43.882;-0.310;2023-05-15T14:34:31;16.40;80.10
57566;DHT22;63999;43.882;-0.310;2023-05-15T14:36:56;16.40;80.20
57566;DHT22;63999;43.882;-0.310;2023-05-15T14:39:23;16.40;80.30
57566;DHT22;63999;43.882;-0.310;2023-05-15T14:41:49;16.40;80.70
57566;DHT22;63999;43.882;-0.310;2023-05-15T14:44:15;16.20;80.90
57566;DHT22;63999;43.882;-0.310;2023-05-15T14:46:41;16.20;80.90
57566;DHT22;63999;43.882;-0.310;2023-05-15T14:49:08;16.20;81.20
57566;DHT22;63999;43.882;-0.310;2023-05-15T14:51:34;16.20;81.30
57566;DHT22;63999;43.882;-0.310;2023-05-15T14:54:00;16.20;81.40
57566;DHT22;63999;43.882;-0.310;2023-05-15T14:56:25;16.20;81.50
57566;DHT22;63999;43.882;-0.310;2023-05-15T14:58:51;16.20;81.00
57566;DHT22;63999;43.882;-0.310;2023-05-15T15:01:20;16.20;81.10
57566;DHT22;63999;43.882;-0.310;2023-05-15T15:03:46;16.20;81.10
57566;DHT22;63999;43.882;-0.310;2023-05-15T15:06:12;16.20;81.30
57566;DHT22;63999;43.882;-0.310;2023-05-15T15:08:38;16.10;81.80
57566;DHT22;63999;43.882;-0.310;2023-05-15T15:11:04;16.10;82.40
57566;DHT22;63999;43.882;-0.310;2023-05-15T15:13:30;16.10;82.30
57566;DHT22;63999;43.882;-0.310;2023-05-15T15:15:56;16.10;82.20
57566;DHT22;63999;43.882;-0.310;2023-05-15T15:18:22;16.10;81.60
57566;DHT22;63999;43.882;-0.310;2023-05-15T15:20:48;16.10;81.80
57566;DHT22;63999;43.882;-0.310;2023-05-15T15:23:14;16.20;81.80
57566;DHT22;63999;43.882;-0.310;2023-05-15T15:25:40;16.20;82.10
57566;DHT22;63999;43.882;-0.310;2023-05-15T15:28:06;16.20;82.10
57566;DHT22;63999;43.882;-0.310;2023-05-15T15:30:32;16.20;82.50
57566;DHT22;63999;43.882;-0.310;2023-05-15T15:32:59;16.20;82.40
57566;DHT22;63999;43.882;-0.310;2023-05-15T15:35:25;16.20;82.00
57566;DHT22;63999;43.882;-0.310;2023-05-15T15:37:51;16.20;81.30
57566;DHT22;63999;43.882;-0.310;2023-05-15T15:40:17;16.20;81.40
57566;DHT22;63999;43.882;-0.310;2023-05-15T15:42:44;16.20;81.40
57566;DHT22;63999;43.882;-0.310;2023-05-15T15:45:10;16.30;81.30
57566;DHT22;63999;43.882;-0.310;2023-05-15T15:47:35;16.30;82.20
57566;DHT22;63999;43.882;-0.310;2023-05-15T15:50:01;16.30;82.00
57566;DHT22;63999;43.882;-0.310;2023-05-15T15:52:27;16.30;81.50
57566;DHT22;63999;43.882;-0.310;2023-05-15T15:54:53;16.30;81.20
57566;DHT22;63999;43.882;-0.310;2023-05-15T15:57:19;16.30;81.70
57566;DHT22;63999;43.882;-0.310;2023-05-15T15:59:46;16.30;81.10
57566;DHT22;63999;43.882;-0.310;2023-05-15T16:02:22;16.30;81.40
57566;DHT22;63999;43.882;-0.310;2023-05-15T16:05:00;16.40;81.40
57566;DHT22;63999;43.882;-0.310;2023-05-15T16:07:36;16.40;81.60
57566;DHT22;63999;43.882;-0.310;2023-05-15T16:10:14;16.40;81.40
57566;DHT22;63999;43.882;-0.310;2023-05-15T16:12:40;16.40;81.20
57566;DHT22;63999;43.882;-0.310;2023-05-15T16:15:07;16.40;81.50
57566;DHT22;63999;43.882;-0.310;2023-05-15T16:17:35;16.40;81.70
57566;DHT22;63999;43.882;-0.310;2023-05-15T16:20:01;16.40;81.30
57566;DHT22;63999;43.882;-0.310;2023-05-15T16:22:27;16.40;81.80
57566;DHT22;63999;43.882;-0.310;2023-05-15T16:24:53;16.40;81.20
57566;DHT22;63999;43.882;-0.310;2023-05-15T16:27:19;16.40;81.00
57566;DHT22;63999;43.882;-0.310;2023-05-15T16:29:45;16.40;81.00
57566;DHT22;63999;43.882;-0.310;2023-05-15T16:32:11;16.40;81.40
57566;DHT22;63999;43.882;-0.310;2023-05-15T16:34:38;16.40;81.60